METAR Data
IDs: Format: Raw Decoded Include TAF

Data at: 0015 UTC 25 Apr 2019

METAR for:KOTM (Ottumwa Industrial, IA, US)
Text:KOTM 242353Z AUTO 23003KT 10SM OVC028 16/10 A2982 RMK AO2 SLP098 T01610100 10172 20133 56014
Temperature: 16.1°C ( 61°F)
Dewpoint: 10.0°C ( 50°F) [RH = 67%]
Pressure (altimeter):29.82 inches Hg (1009.9 mb) [Sea level pressure: 1009.8 mb]
Winds:from the SW (230 degrees) at 3 MPH (3 knots; 1.5 m/s)
Visibility:10 or more sm (16+ km)
Ceiling:2800 feet AGL
Clouds: overcast cloud deck at 2800 feet AGL
QC Flag:automated observation with no human augmentation